Time;durP1;ratioP1;P1;durP2;ratioP2;P2;SDS_P1;SDS_P2;PMS_P1;PMS_P2;Temp;Humidity;BMP_temperature;BMP_pressure;BME280_temperature;BME280_humidity;BME280_pressure;Samples;Min_cycle;Max_cycle;Signal;HPM_P1;HPM_P2
2022/01/08 00:01:00;;;;;;;10.73;5.20;;;3.00;99.90;;;;;;4999519;28;20220;-79
2022/01/08 00:03:25;;;;;;;9.10;5.00;;;3.00;99.90;;;;;;5000204;28;20196;-79
2022/01/08 00:05:53;;;;;;;8.43;4.00;;;3.10;99.90;;;;;;5000362;28;20265;-79
2022/01/08 00:08:19;;;;;;;7.43;3.93;;;3.00;99.90;;;;;;5000326;28;20245;-79
2022/01/08 00:10:44;;;;;;;8.43;4.30;;;3.00;99.90;;;;;;5001805;28;20184;-79
2022/01/08 00:13:10;;;;;;;9.17;4.00;;;3.00;99.90;;;;;;5004392;28;20188;-78
2022/01/08 00:15:36;;;;;;;12.27;4.07;;;2.90;99.90;;;;;;5004203;28;20763;-79
2022/01/08 00:18:02;;;;;;;9.97;4.27;;;3.10;99.90;;;;;;5003722;28;20209;-78
2022/01/08 00:20:29;;;;;;;8.80;4.30;;;3.00;99.90;;;;;;4999751;28;20209;-79
2022/01/08 00:22:56;;;;;;;7.70;4.50;;;3.00;99.90;;;;;;4997842;28;20196;-79
2022/01/08 00:25:22;;;;;;;8.10;4.13;;;3.00;99.90;;;;;;5008484;28;20173;-79
2022/01/08 00:27:47;;;;;;;12.27;4.33;;;3.00;99.90;;;;;;5008071;28;20239;-79
2022/01/08 00:30:13;;;;;;;9.93;3.67;;;3.00;99.90;;;;;;5008055;28;20189;-79
2022/01/08 00:32:40;;;;;;;6.67;4.30;;;3.00;99.90;;;;;;5009472;28;20216;-79
2022/01/08 00:35:08;;;;;;;9.47;3.80;;;3.00;99.90;;;;;;5008742;28;20611;-79
2022/01/08 00:37:36;;;;;;;10.60;4.60;;;3.00;99.90;;;;;;5007764;28;20201;-79
2022/01/08 00:40:02;;;;;;;8.43;4.77;;;3.00;99.90;;;;;;5008808;28;20203;-78
2022/01/08 00:42:28;;;;;;;8.67;3.93;;;3.00;99.90;;;;;;5008346;28;20312;-79
2022/01/08 00:44:54;;;;;;;8.97;4.20;;;3.00;99.90;;;;;;5007879;28;20179;-79
2022/01/08 00:47:19;;;;;;;10.53;3.83;;;3.00;99.90;;;;;;5008505;28;20204;-79
2022/01/08 00:49:45;;;;;;;7.73;3.83;;;3.00;99.90;;;;;;5008866;28;20208;-79
2022/01/08 00:52:10;;;;;;;7.70;3.97;;;3.00;99.90;;;;;;5007242;28;20208;-78
2022/01/08 00:54:37;;;;;;;6.33;3.53;;;2.90;99.90;;;;;;5009020;28;20198;-79
2022/01/08 00:57:03;;;;;;;4.87;3.30;;;2.80;99.90;;;;;;5008679;28;20254;-78
2022/01/08 00:59:29;;;;;;;6.40;3.30;;;2.80;99.90;;;;;;5008912;28;20211;-78
2022/01/08 01:01:54;;;;;;;4.60;3.60;;;2.70;99.90;;;;;;5008314;28;20181;-79
2022/01/08 01:04:20;;;;;;;6.63;3.80;;;2.60;99.90;;;;;;5008415;28;20635;-78
2022/01/08 01:06:46;;;;;;;8.10;3.63;;;2.60;99.90;;;;;;5008412;28;20268;-79
2022/01/08 01:09:11;;;;;;;6.63;3.73;;;2.60;99.90;;;;;;5008739;28;20195;-79
2022/01/08 01:11:37;;;;;;;7.47;3.97;;;2.50;99.90;;;;;;5007705;28;20180;-79
2022/01/08 01:14:03;;;;;;;5.30;3.80;;;2.40;99.90;;;;;;5009426;28;20316;-78
2022/01/08 01:16:29;;;;;;;5.33;3.23;;;2.40;99.90;;;;;;5007989;28;20207;-79
2022/01/08 01:18:55;;;;;;;9.10;3.43;;;2.30;99.90;;;;;;5007092;28;20185;-79
2022/01/08 01:21:21;;;;;;;6.70;4.03;;;2.20;99.90;;;;;;5007156;28;20193;-79
2022/01/08 01:23:47;;;;;;;5.73;3.60;;;2.30;99.90;;;;;;5007097;28;20269;-79
2022/01/08 01:26:18;;;;;;;5.53;3.10;;;2.10;99.90;;;;;;5007074;28;20223;-78
2022/01/08 01:29:03;;;;;;;7.47;3.77;;;2.10;99.90;;;;;;5006779;28;20215;-78
2022/01/08 01:47:43;;;;;;;9.00;4.10;;;1.70;99.90;;;;;;5026374;28;20219;-79
2022/01/08 01:50:10;;;;;;;7.87;4.60;;;1.60;99.90;;;;;;5008844;28;20189;-79
2022/01/08 01:52:36;;;;;;;7.93;3.87;;;1.60;99.90;;;;;;5008900;28;20223;-79
2022/01/08 01:55:02;;;;;;;5.10;3.90;;;1.50;99.90;;;;;;5008567;28;20223;-79
2022/01/08 01:57:29;;;;;;;5.27;3.90;;;1.50;99.90;;;;;;5007825;28;20215;-79
2022/01/08 01:59:54;;;;;;;5.13;3.83;;;1.60;99.90;;;;;;5008894;28;20574;-79
2022/01/08 02:02:20;;;;;;;6.07;3.63;;;1.60;99.90;;;;;;5008167;28;20216;-79
2022/01/08 02:04:46;;;;;;;13.60;4.87;;;1.50;99.90;;;;;;5008884;28;20181;-79
2022/01/08 02:07:11;;;;;;;8.80;3.90;;;1.40;99.90;;;;;;5008628;28;20200;-79
2022/01/08 02:09:39;;;;;;;6.57;4.10;;;1.40;99.90;;;;;;5007926;28;20185;-79
2022/01/08 02:12:08;;;;;;;7.40;4.10;;;1.30;99.90;;;;;;5008603;28;20284;-79
2022/01/08 02:14:37;;;;;;;7.53;4.13;;;1.30;99.90;;;;;;5009105;28;20207;-79
2022/01/08 02:17:07;;;;;;;7.40;4.10;;;1.30;99.90;;;;;;5008344;28;20211;-79
2022/01/08 02:19:33;;;;;;;7.50;3.40;;;1.30;99.90;;;;;;5010366;28;20205;-79
2022/01/08 02:22:01;;;;;;;7.10;4.47;;;1.30;99.90;;;;;;5007867;28;20177;-79
2022/01/08 02:24:27;;;;;;;5.57;3.93;;;1.20;99.90;;;;;;5024108;28;20184;-79
2022/01/08 02:26:54;;;;;;;6.50;4.00;;;1.20;99.90;;;;;;5006653;28;20225;-78
2022/01/08 02:29:21;;;;;;;6.90;4.03;;;1.10;99.90;;;;;;5006011;28;20184;-79
2022/01/08 02:32:00;;;;;;;5.67;3.73;;;1.10;99.90;;;;;;5005716;28;20188;-79
2022/01/08 02:34:27;;;;;;;7.97;3.60;;;1.00;99.90;;;;;;5005649;28;20196;-79
2022/01/08 02:36:54;;;;;;;5.87;3.50;;;1.00;99.90;;;;;;5005356;28;20201;-79
2022/01/08 02:39:19;;;;;;;5.17;3.50;;;1.00;99.90;;;;;;5004777;28;20186;-79
2022/01/08 02:41:45;;;;;;;6.13;3.60;;;0.90;99.90;;;;;;5005900;28;20189;-78
2022/01/08 02:44:11;;;;;;;7.70;3.70;;;0.90;99.90;;;;;;5005401;28;20579;-78
2022/01/08 02:46:41;;;;;;;6.97;3.90;;;0.80;99.90;;;;;;5005013;28;20282;-78
2022/01/08 02:49:07;;;;;;;8.10;3.70;;;0.70;99.90;;;;;;5004820;28;20181;-79
2022/01/08 02:51:35;;;;;;;10.23;3.67;;;0.80;99.90;;;;;;5004254;28;20181;-78
2022/01/08 02:54:07;;;;;;;6.63;3.27;;;0.70;99.90;;;;;;5022110;28;20216;-78
2022/01/08 02:56:40;;;;;;;4.07;2.90;;;0.70;99.90;;;;;;5006280;28;20200;-78
2022/01/08 02:59:06;;;;;;;5.47;3.30;;;0.70;99.90;;;;;;5008673;28;20187;-77
2022/01/08 03:01:33;;;;;;;4.90;2.83;;;0.60;99.90;;;;;;5005280;28;20216;-78
2022/01/08 03:03:58;;;;;;;6.73;3.67;;;0.50;99.90;;;;;;5002731;28;20241;-78
2022/01/08 03:06:24;;;;;;;4.40;2.60;;;0.50;99.90;;;;;;5002202;28;20231;-78
2022/01/08 03:08:50;;;;;;;6.07;3.10;;;0.50;99.90;;;;;;5003784;28;20186;-78
2022/01/08 03:11:15;;;;;;;5.53;2.97;;;0.50;99.90;;;;;;5023661;28;20184;-78
2022/01/08 03:13:41;;;;;;;6.70;3.50;;;0.40;99.90;;;;;;5006190;28;20195;-78
2022/01/08 03:16:07;;;;;;;5.00;3.40;;;0.40;99.90;;;;;;5006180;28;20208;-78
2022/01/08 03:18:34;;;;;;;4.47;3.77;;;0.40;99.90;;;;;;5006339;28;20196;-78
2022/01/08 03:21:04;;;;;;;5.83;3.30;;;0.40;99.90;;;;;;5005773;28;20206;-78
2022/01/08 03:23:46;;;;;;;5.57;3.93;;;0.30;99.90;;;;;;5005516;28;20185;-78
2022/01/08 03:26:12;;;;;;;10.30;3.70;;;0.30;99.90;;;;;;5006017;28;20304;-78
2022/01/08 03:28:37;;;;;;;5.50;3.97;;;0.40;99.90;;;;;;5005692;28;20606;-78
2022/01/08 03:31:03;;;;;;;7.23;3.90;;;0.40;99.90;;;;;;5005232;28;20222;-78
2022/01/08 03:33:29;;;;;;;11.43;4.77;;;0.30;99.90;;;;;;5005400;28;20193;-78
2022/01/08 03:35:55;;;;;;;6.57;4.07;;;0.30;99.90;;;;;;5005527;28;20271;-78
2022/01/08 03:38:20;;;;;;;5.93;4.33;;;0.30;99.90;;;;;;5004486;28;20184;-78
2022/01/08 03:40:46;;;;;;;7.47;4.77;;;0.20;99.90;;;;;;5004828;28;20267;-78
2022/01/08 03:43:11;;;;;;;8.60;5.20;;;0.30;99.90;;;;;;5004425;28;20180;-76
2022/01/08 03:45:37;;;;;;;11.90;6.47;;;0.30;99.90;;;;;;5004234;28;20188;-79
2022/01/08 03:50:47;;;;;;;11.53;7.83;;;0.30;99.90;;;;;;5021894;28;20255;-78
2022/01/08 03:53:13;;;;;;;12.13;7.90;;;0.40;99.90;;;;;;5005244;28;20223;-78
2022/01/08 03:55:39;;;;;;;16.93;7.67;;;0.40;99.90;;;;;;5004570;28;20199;-78
2022/01/08 03:58:04;;;;;;;16.10;8.77;;;0.40;99.90;;;;;;5005457;28;20235;-77
2022/01/08 04:00:31;;;;;;;18.60;10.67;;;0.50;99.90;;;;;;5004346;28;20590;-76
2022/01/08 04:02:56;;;;;;;21.37;12.40;;;0.70;99.90;;;;;;5004823;28;20196;-78
2022/01/08 04:05:22;;;;;;;20.10;11.60;;;0.80;99.90;;;;;;5005815;28;20196;-79
2022/01/08 04:07:47;;;;;;;25.63;11.43;;;0.80;99.90;;;;;;5006675;28;20232;-78
2022/01/08 04:10:13;;;;;;;24.90;11.10;;;0.80;99.90;;;;;;5025832;28;20550;-78
2022/01/08 04:12:46;;;;;;;25.80;12.67;;;0.80;99.90;;;;;;5006748;28;20192;-78
2022/01/08 04:17:51;;;;;;;29.50;11.57;;;0.90;99.90;;;;;;5022850;28;20195;-78
2022/01/08 04:20:17;;;;;;;21.60;12.23;;;0.80;99.90;;;;;;5005603;28;20244;-78
2022/01/08 04:22:45;;;;;;;24.00;13.70;;;0.80;99.90;;;;;;5006665;28;20194;-78
2022/01/08 04:25:11;;;;;;;22.13;12.60;;;0.90;99.90;;;;;;5007264;28;20194;-78
2022/01/08 04:27:37;;;;;;;20.97;13.10;;;0.90;99.90;;;;;;5007062;28;20236;-78
2022/01/08 04:30:04;;;;;;;16.67;10.87;;;0.90;99.90;;;;;;5007541;28;20188;-79
2022/01/08 04:32:29;;;;;;;17.27;11.43;;;0.90;99.90;;;;;;5006559;28;20188;-78
2022/01/08 04:34:55;;;;;;;22.07;12.23;;;0.80;99.90;;;;;;5007598;28;20219;-78
2022/01/08 04:37:21;;;;;;;18.67;11.93;;;0.80;99.90;;;;;;5007414;28;20219;-78
2022/01/08 04:39:46;;;;;;;19.80;12.33;;;0.80;99.90;;;;;;5006758;28;20215;-78
2022/01/08 04:42:12;;;;;;;18.77;12.20;;;0.80;99.90;;;;;;5006574;28;20196;-78
2022/01/08 04:44:37;;;;;;;21.40;12.30;;;0.80;99.90;;;;;;5006282;28;20219;-78
2022/01/08 04:47:03;;;;;;;18.57;11.43;;;0.80;99.90;;;;;;5006378;28;20329;-78
2022/01/08 04:49:29;;;;;;;17.53;9.90;;;0.80;99.90;;;;;;5006889;28;20193;-78
2022/01/08 04:51:55;;;;;;;18.27;9.50;;;0.80;99.90;;;;;;5005881;28;20260;-78
2022/01/08 04:54:23;;;;;;;15.70;9.13;;;0.80;99.90;;;;;;4992331;28;20607;-78
2022/01/08 04:56:49;;;;;;;14.73;7.90;;;0.70;99.90;;;;;;5007848;28;20654;-78
2022/01/08 04:59:15;;;;;;;16.23;8.47;;;0.70;99.90;;;;;;5008807;28;20211;-80
2022/01/08 05:01:43;;;;;;;12.67;7.90;;;0.60;99.90;;;;;;5008220;28;20191;-79
2022/01/08 05:04:09;;;;;;;11.00;7.77;;;0.60;99.90;;;;;;5008398;28;20181;-78
2022/01/08 05:06:34;;;;;;;12.87;7.67;;;0.60;99.90;;;;;;5008065;28;20220;-78
2022/01/08 05:09:00;;;;;;;10.83;7.63;;;0.50;99.90;;;;;;5008624;28;20185;-78
2022/01/08 05:11:27;;;;;;;11.27;8.40;;;0.50;99.90;;;;;;5025182;28;20195;-79
2022/01/08 05:13:54;;;;;;;12.30;7.97;;;0.50;99.90;;;;;;5007817;28;20189;-79
2022/01/08 05:16:20;;;;;;;14.00;8.03;;;0.50;99.90;;;;;;5007868;28;20354;-78
2022/01/08 05:18:46;;;;;;;12.60;8.80;;;0.40;99.90;;;;;;5008056;28;20196;-79
2022/01/08 05:21:26;;;;;;;14.90;8.17;;;0.40;99.90;;;;;;5007744;28;20220;-78
2022/01/08 05:23:53;;;;;;;13.87;9.10;;;0.40;99.90;;;;;;5008997;28;20197;-78
2022/01/08 05:26:20;;;;;;;15.93;8.97;;;0.30;99.90;;;;;;5006164;28;20360;-78
2022/01/08 05:28:46;;;;;;;13.20;8.93;;;0.30;99.90;;;;;;5005777;28;20246;-78
2022/01/08 05:31:15;;;;;;;13.10;8.93;;;0.30;99.90;;;;;;5005107;28;20189;-79
2022/01/08 05:33:40;;;;;;;14.80;9.30;;;0.20;99.90;;;;;;5005790;28;20198;-79
2022/01/08 05:36:06;;;;;;;19.87;9.33;;;0.20;99.90;;;;;;5005919;28;20670;-78
2022/01/08 05:38:31;;;;;;;15.17;9.37;;;0.20;99.90;;;;;;5003954;28;20606;-78
2022/01/08 05:40:57;;;;;;;18.70;9.33;;;0.20;99.90;;;;;;5003673;28;20673;-79
2022/01/08 05:43:23;;;;;;;18.30;9.83;;;0.10;99.90;;;;;;5005411;28;20231;-78
2022/01/08 05:45:48;;;;;;;19.90;10.20;;;0.10;99.90;;;;;;5006399;28;20219;-78
2022/01/08 05:48:14;;;;;;;18.77;11.13;;;0.10;99.90;;;;;;5005487;28;20552;-78
2022/01/08 05:50:40;;;;;;;18.60;10.93;;;0.10;99.90;;;;;;5003983;28;20188;-78
2022/01/08 05:53:06;;;;;;;23.03;10.93;;;0.10;99.90;;;;;;5004519;28;20200;-77
2022/01/08 05:55:32;;;;;;;19.63;11.50;;;0.20;99.90;;;;;;5004169;28;20191;-78
2022/01/08 05:57:58;;;;;;;20.03;10.87;;;0.10;99.90;;;;;;5021336;28;20650;-78
2022/01/08 06:00:23;;;;;;;15.77;10.97;;;0.10;99.90;;;;;;5003938;28;20219;-78
2022/01/08 06:02:49;;;;;;;18.00;11.03;;;0.20;99.90;;;;;;5002767;28;20188;-78
2022/01/08 06:05:15;;;;;;;19.47;11.67;;;0.20;99.90;;;;;;5003133;28;20259;-78
2022/01/08 06:07:40;;;;;;;18.33;11.53;;;0.20;99.90;;;;;;5002702;28;20208;-78
2022/01/08 06:10:06;;;;;;;23.47;12.37;;;0.20;99.90;;;;;;5002162;28;20187;-78
2022/01/08 06:12:32;;;;;;;23.07;12.30;;;0.20;99.90;;;;;;5020188;28;20602;-78
2022/01/08 06:14:58;;;;;;;19.50;12.53;;;0.20;99.90;;;;;;5002603;28;20235;-78
2022/01/08 06:17:24;;;;;;;22.00;12.33;;;0.20;99.90;;;;;;5002402;28;20582;-78
2022/01/08 06:19:50;;;;;;;19.97;11.70;;;0.20;99.90;;;;;;5002487;28;20720;-78
2022/01/08 06:22:16;;;;;;;23.90;12.50;;;0.20;99.90;;;;;;5002083;28;20243;-78
2022/01/08 06:24:42;;;;;;;16.13;11.03;;;0.20;99.90;;;;;;5002847;28;20187;-78
2022/01/08 06:27:08;;;;;;;13.27;9.67;;;0.20;99.90;;;;;;5003122;28;20265;-78
2022/01/08 06:29:33;;;;;;;18.47;10.53;;;0.20;99.90;;;;;;5003560;28;20189;-78
2022/01/08 06:31:59;;;;;;;18.90;10.73;;;0.20;99.90;;;;;;5022869;28;20185;-78
2022/01/08 06:34:24;;;;;;;22.70;10.97;;;0.20;99.90;;;;;;5006543;28;20537;-78
2022/01/08 06:36:50;;;;;;;16.40;10.67;;;0.20;99.90;;;;;;5006153;28;20215;-78
2022/01/08 06:39:17;;;;;;;19.83;11.80;;;0.20;99.90;;;;;;5003542;28;20203;-78
2022/01/08 06:41:43;;;;;;;17.50;11.43;;;0.20;99.90;;;;;;5002726;28;20192;-79
2022/01/08 06:44:09;;;;;;;18.67;12.63;;;0.20;99.90;;;;;;5002960;28;20658;-78
2022/01/08 06:46:35;;;;;;;17.77;11.63;;;0.20;99.90;;;;;;5003102;28;20203;-78
2022/01/08 06:49:00;;;;;;;18.63;10.97;;;0.20;99.90;;;;;;5002345;28;20192;-78
2022/01/08 06:51:26;;;;;;;19.03;11.03;;;0.20;99.90;;;;;;5001806;28;20247;-78
2022/01/08 06:53:52;;;;;;;19.40;11.37;;;0.20;99.90;;;;;;5002603;28;20200;-78
2022/01/08 06:56:18;;;;;;;16.13;11.57;;;0.30;99.90;;;;;;5002195;28;20207;-78
2022/01/08 06:58:45;;;;;;;16.73;10.43;;;0.20;99.90;;;;;;5003019;28;20215;-78
2022/01/08 07:01:11;;;;;;;23.80;12.57;;;0.20;99.90;;;;;;5002903;28;20219;-80
2022/01/08 07:03:36;;;;;;;19.30;11.43;;;0.20;99.90;;;;;;5003843;28;20192;-78
2022/01/08 07:06:03;;;;;;;21.23;11.67;;;0.20;99.90;;;;;;5002755;28;20210;-78
2022/01/08 07:08:29;;;;;;;20.07;11.20;;;0.20;99.90;;;;;;5020629;28;20200;-78
2022/01/08 07:10:54;;;;;;;20.93;11.37;;;0.30;99.90;;;;;;5003112;28;20646;-78
2022/01/08 07:13:20;;;;;;;22.17;10.90;;;0.30;99.90;;;;;;5003616;28;20596;-78
2022/01/08 07:15:45;;;;;;;25.90;11.03;;;0.30;99.90;;;;;;5021279;28;20575;-78
2022/01/08 07:18:11;;;;;;;18.40;10.93;;;0.30;99.90;;;;;;5021597;28;20192;-78
2022/01/08 07:20:36;;;;;;;21.67;10.90;;;0.30;99.90;;;;;;5020661;28;20211;-78
2022/01/08 07:23:02;;;;;;;18.87;11.10;;;0.30;99.90;;;;;;5019351;28;20181;-78
2022/01/08 07:25:27;;;;;;;20.60;10.80;;;0.30;99.90;;;;;;5017995;28;20181;-79
2022/01/08 07:27:53;;;;;;;20.20;12.07;;;0.40;99.90;;;;;;4999147;28;20659;-78
2022/01/08 07:30:19;;;;;;;20.70;11.33;;;0.40;99.90;;;;;;5020195;28;20193;-78
2022/01/08 07:32:47;;;;;;;20.27;11.80;;;0.40;99.90;;;;;;5020192;28;20236;-78
2022/01/08 07:35:14;;;;;;;18.23;11.90;;;0.40;99.90;;;;;;5002053;28;20603;-78
2022/01/08 07:37:41;;;;;;;19.10;11.87;;;0.40;99.90;;;;;;5001639;28;20255;-78
2022/01/08 07:40:08;;;;;;;23.60;12.63;;;0.40;99.90;;;;;;5019617;28;20208;-79
2022/01/08 07:42:33;;;;;;;17.37;11.23;;;0.30;99.90;;;;;;5017655;28;20561;-78
2022/01/08 07:44:59;;;;;;;18.83;10.87;;;0.30;99.90;;;;;;5002773;28;20188;-79
2022/01/08 07:47:24;;;;;;;20.90;11.97;;;0.30;99.90;;;;;;5021929;28;20770;-78
2022/01/08 07:49:50;;;;;;;15.13;11.47;;;0.30;99.90;;;;;;5024591;28;20195;-79
2022/01/08 07:52:16;;;;;;;23.30;11.87;;;0.30;99.90;;;;;;5026998;28;20200;-79
2022/01/08 07:54:42;;;;;;;22.17;11.43;;;0.30;99.90;;;;;;5028444;28;20550;-79
2022/01/08 07:57:08;;;;;;;21.73;11.43;;;0.30;99.90;;;;;;5029604;28;20212;-79
2022/01/08 07:59:34;;;;;;;17.07;11.57;;;0.30;99.90;;;;;;5011738;28;20602;-79
2022/01/08 08:01:59;;;;;;;18.67;11.17;;;0.30;99.90;;;;;;5011689;28;20188;-79
2022/01/08 08:04:25;;;;;;;15.60;10.97;;;0.30;99.90;;;;;;5030098;28;20193;-79
2022/01/08 08:06:51;;;;;;;19.20;11.87;;;0.30;99.90;;;;;;5029777;28;20209;-79
2022/01/08 08:09:16;;;;;;;24.70;12.17;;;0.30;99.90;;;;;;5010440;28;20176;-79
2022/01/08 08:11:42;;;;;;;18.53;12.43;;;0.40;99.90;;;;;;5011110;28;20207;-79
2022/01/08 08:14:08;;;;;;;18.07;10.93;;;0.40;99.90;;;;;;5011508;28;20200;-79
2022/01/08 08:16:34;;;;;;;18.57;12.27;;;0.40;99.90;;;;;;5011012;28;20212;-79
2022/01/08 08:18:59;;;;;;;16.47;11.23;;;0.40;99.90;;;;;;5027290;28;20593;-79
2022/01/08 08:21:25;;;;;;;22.60;13.60;;;0.50;99.90;;;;;;5008514;28;20219;-79
2022/01/08 08:23:50;;;;;;;26.07;12.70;;;0.50;99.90;;;;;;5022958;28;20192;-80
2022/01/08 08:26:16;;;;;;;21.80;13.90;;;0.60;99.90;;;;;;5029956;22;20213;-76
2022/01/08 08:28:42;;;;;;;28.03;14.47;;;0.70;99.90;;;;;;5018894;28;20242;-76
2022/01/08 08:31:09;;;;;;;31.27;15.00;;;0.70;99.90;;;;;;5018116;28;20188;-76
2022/01/08 08:33:34;;;;;;;24.73;13.57;;;0.70;99.90;;;;;;5018756;28;20608;-78
2022/01/08 08:36:00;;;;;;;21.77;14.57;;;0.70;99.90;;;;;;5020781;28;20192;-78
2022/01/08 08:38:25;;;;;;;28.70;15.40;;;0.80;99.90;;;;;;5022694;28;20184;-78
2022/01/08 08:40:51;;;;;;;26.93;15.13;;;0.80;99.90;;;;;;5015320;28;20706;-77
2022/01/08 08:43:19;;;;;;;26.23;13.60;;;0.80;99.90;;;;;;5016031;28;20287;-77
2022/01/08 08:45:46;;;;;;;25.27;14.30;;;0.90;99.90;;;;;;5015438;28;20560;-78
2022/01/08 08:48:12;;;;;;;30.00;14.67;;;0.90;99.90;;;;;;5031861;28;20257;-79
2022/01/08 08:50:37;;;;;;;27.73;14.70;;;1.00;99.90;;;;;;5024572;28;20193;-81
2022/01/08 08:53:03;;;;;;;27.10;15.13;;;1.10;99.90;;;;;;5021759;28;20196;-78
2022/01/08 08:55:29;;;;;;;29.57;15.37;;;1.00;99.90;;;;;;5021037;28;20189;-79
2022/01/08 08:57:54;;;;;;;23.20;14.50;;;1.10;99.90;;;;;;5020940;28;20263;-79
2022/01/08 09:00:20;;;;;;;24.30;14.60;;;1.10;99.90;;;;;;5021175;28;20209;-80
2022/01/08 09:02:46;;;;;;;28.00;15.73;;;1.20;99.90;;;;;;5026087;28;20188;-79
2022/01/08 09:05:11;;;;;;;27.23;15.77;;;1.20;99.90;;;;;;5024027;28;20181;-79
2022/01/08 09:07:38;;;;;;;32.67;15.17;;;1.20;99.90;;;;;;5021014;28;20197;-79
2022/01/08 09:10:06;;;;;;;23.77;15.33;;;1.30;99.90;;;;;;5022715;28;20195;-79
2022/01/08 09:12:32;;;;;;;29.93;15.70;;;1.30;99.90;;;;;;5022541;28;20247;-79
2022/01/08 09:14:57;;;;;;;29.60;14.43;;;1.40;99.90;;;;;;5022110;28;20185;-79
2022/01/08 09:17:25;;;;;;;29.63;15.10;;;1.40;99.90;;;;;;5021909;28;20263;-80
2022/01/08 09:19:50;;;;;;;28.17;14.83;;;1.40;99.90;;;;;;5021601;28;20588;-79
2022/01/08 09:22:17;;;;;;;25.87;14.63;;;1.50;99.90;;;;;;5035363;28;20196;-79
2022/01/08 09:24:43;;;;;;;30.83;15.37;;;1.60;99.90;;;;;;5040160;28;20203;-78
2022/01/08 09:27:09;;;;;;;26.07;15.27;;;1.60;99.90;;;;;;5040417;28;20219;-79
2022/01/08 09:29:35;;;;;;;30.27;15.83;;;1.60;99.90;;;;;;5038210;28;20191;-81
2022/01/08 09:32:03;;;;;;;29.73;15.70;;;1.90;99.90;;;;;;5026950;28;20184;-79
2022/01/08 09:34:29;;;;;;;28.17;16.20;;;1.90;99.90;;;;;;5020773;28;20181;-79
2022/01/08 09:36:54;;;;;;;34.03;16.50;;;1.80;99.90;;;;;;5020282;28;20214;-79
2022/01/08 09:39:20;;;;;;;27.20;15.93;;;1.90;99.90;;;;;;5024818;28;20177;-79
2022/01/08 09:41:46;;;;;;;36.27;16.70;;;1.90;99.90;;;;;;5028884;28;20631;-79
2022/01/08 09:44:12;;;;;;;30.83;16.47;;;2.00;99.90;;;;;;5027220;28;20187;-79
2022/01/08 09:46:38;;;;;;;31.40;16.30;;;2.00;99.90;;;;;;5028232;28;20197;-79
2022/01/08 09:49:03;;;;;;;39.00;16.77;;;2.00;99.90;;;;;;5027481;28;20231;-79
2022/01/08 09:51:29;;;;;;;31.90;16.63;;;2.10;99.90;;;;;;5029341;28;20180;-80
2022/01/08 09:53:55;;;;;;;33.27;16.60;;;2.20;99.90;;;;;;5026336;28;20244;-78
2022/01/08 09:56:25;;;;;;;36.37;18.63;;;2.20;99.90;;;;;;5023960;28;20211;-79
2022/01/08 09:58:51;;;;;;;35.07;17.70;;;2.30;99.90;;;;;;5024715;28;20611;-79
2022/01/08 10:01:27;;;;;;;45.00;18.60;;;2.30;99.90;;;;;;5023927;28;20189;-79
2022/01/08 10:03:54;;;;;;;34.20;17.30;;;2.30;99.90;;;;;;5023609;28;20580;-80
2022/01/08 10:06:28;;;;;;;35.50;18.40;;;2.30;99.90;;;;;;5025605;28;20212;-79
2022/01/08 10:08:54;;;;;;;35.73;17.93;;;2.40;99.90;;;;;;5022382;28;20181;-80
2022/01/08 10:11:21;;;;;;;35.77;18.83;;;2.40;99.90;;;;;;5017252;28;20185;-80
2022/01/08 10:13:51;;;;;;;33.20;18.07;;;2.40;99.90;;;;;;5015739;28;20185;-79
2022/01/08 10:19:15;;;;;;;39.20;16.70;;;2.50;99.90;;;;;;5034138;28;20183;-79
2022/01/08 10:21:43;;;;;;;38.27;16.77;;;2.50;99.90;;;;;;5029891;28;20200;-80
2022/01/08 10:24:10;;;;;;;39.47;17.37;;;2.50;99.90;;;;;;5028542;28;20642;-78
2022/01/08 10:26:38;;;;;;;35.30;16.90;;;2.60;99.90;;;;;;5026529;28;20204;-79
2022/01/08 10:29:25;;;;;;;32.17;15.93;;;2.60;99.90;;;;;;5033093;28;20219;-79
2022/01/08 10:31:55;;;;;;;40.03;17.00;;;2.70;99.90;;;;;;5032954;28;20212;-77
2022/01/08 10:34:26;;;;;;;36.80;16.63;;;2.70;99.90;;;;;;5031640;28;20235;-78
2022/01/08 10:37:05;;;;;;;38.10;17.47;;;2.80;99.90;;;;;;5031141;28;20200;-78
2022/01/08 10:39:40;;;;;;;34.20;16.33;;;2.80;99.90;;;;;;5030972;28;20172;-78
2022/01/08 10:42:17;;;;;;;35.00;15.73;;;2.80;99.90;;;;;;5030323;28;20237;-78
2022/01/08 10:44:46;;;;;;;31.87;15.57;;;2.90;99.90;;;;;;5030690;28;20176;-78
2022/01/08 10:47:17;;;;;;;29.10;15.47;;;2.90;99.90;;;;;;5033036;28;20278;-78
2022/01/08 10:50:06;;;;;;;30.10;15.10;;;3.00;99.90;;;;;;5033337;28;20188;-78
2022/01/08 10:52:48;;;;;;;32.47;16.87;;;3.10;99.90;;;;;;5030989;28;20230;-78
2022/01/08 10:55:28;;;;;;;30.33;15.97;;;3.10;99.90;;;;;;5032967;28;20183;-78
2022/01/08 10:57:53;;;;;;;32.20;15.90;;;3.20;99.90;;;;;;5011955;28;20232;-78
2022/01/08 11:00:21;;;;;;;30.90;16.27;;;3.20;99.90;;;;;;5011896;28;20612;-78
2022/01/08 11:02:46;;;;;;;31.70;16.13;;;3.30;99.90;;;;;;5013497;28;20262;-78
2022/01/08 11:05:13;;;;;;;34.20;16.17;;;3.30;99.90;;;;;;5013439;28;20236;-77
2022/01/08 11:07:41;;;;;;;25.63;13.47;;;3.40;99.90;;;;;;5013388;28;20193;-78
2022/01/08 11:10:11;;;;;;;27.67;12.53;;;3.40;99.90;;;;;;5017687;28;20617;-78
2022/01/08 11:12:41;;;;;;;24.60;11.70;;;3.40;99.90;;;;;;5031394;28;20207;-78
2022/01/08 11:15:25;;;;;;;19.83;12.17;;;3.50;99.90;;;;;;5033048;28;20169;-77
2022/01/08 11:17:55;;;;;;;17.97;10.30;;;3.50;99.90;;;;;;5031385;28;20254;-78
2022/01/08 11:20:24;;;;;;;18.83;10.33;;;3.60;99.90;;;;;;5032665;28;20208;-77
2022/01/08 11:22:57;;;;;;;18.20;10.30;;;3.60;99.90;;;;;;5031380;28;20191;-77
2022/01/08 11:25:25;;;;;;;14.80;9.53;;;3.60;99.90;;;;;;5031596;28;20184;-78
2022/01/08 11:28:10;;;;;;;16.90;9.37;;;3.70;99.90;;;;;;5032463;28;20231;-77
2022/01/08 11:30:39;;;;;;;19.50;9.33;;;3.70;99.90;;;;;;5033503;28;20188;-78
2022/01/08 11:33:12;;;;;;;16.47;8.40;;;3.80;99.90;;;;;;5036417;28;20274;-78
2022/01/08 11:35:39;;;;;;;17.17;8.70;;;3.80;99.90;;;;;;5036434;28;20656;-78
2022/01/08 11:38:07;;;;;;;14.50;7.63;;;3.80;99.90;;;;;;5036802;28;20575;-77
2022/01/08 11:40:33;;;;;;;15.87;7.93;;;3.80;99.90;;;;;;5036310;28;20196;-78
2022/01/08 11:43:02;;;;;;;11.67;6.80;;;3.90;99.90;;;;;;5037191;28;20184;-78
2022/01/08 11:45:34;;;;;;;16.70;7.37;;;3.90;99.90;;;;;;5035843;28;20234;-78
2022/01/08 11:48:02;;;;;;;10.77;7.00;;;3.90;99.90;;;;;;5035510;28;20290;-78
2022/01/08 11:50:30;;;;;;;11.90;6.53;;;3.90;99.90;;;;;;5036591;28;20184;-78
2022/01/08 11:53:26;;;;;;;16.27;7.17;;;3.90;99.90;;;;;;5035486;28;20216;-77
2022/01/08 11:56:04;;;;;;;11.13;6.20;;;3.90;99.90;;;;;;5033654;28;20552;-77
2022/01/08 11:58:33;;;;;;;13.10;7.00;;;3.90;99.90;;;;;;5034555;28;20657;-78
2022/01/08 12:01:10;;;;;;;10.00;6.03;;;4.00;99.90;;;;;;5036577;28;20208;-78
2022/01/08 12:03:47;;;;;;;9.57;6.47;;;4.00;99.90;;;;;;5036487;28;20221;-78
2022/01/08 12:06:22;;;;;;;11.80;6.10;;;4.00;99.90;;;;;;5036379;28;20183;-78
2022/01/08 12:09:19;;;;;;;12.93;5.80;;;4.00;99.90;;;;;;5034978;28;20203;-78
2022/01/08 12:12:05;;;;;;;11.03;5.97;;;4.10;99.90;;;;;;5036249;28;20161;-77
2022/01/08 12:14:36;;;;;;;15.67;6.33;;;4.20;99.90;;;;;;5034075;28;20198;-78
2022/01/08 12:17:18;;;;;;;9.30;5.13;;;4.20;99.90;;;;;;5035864;28;20215;-78
2022/01/08 12:19:50;;;;;;;10.40;5.27;;;4.30;99.90;;;;;;5036181;28;20157;-77
2022/01/08 12:22:15;;;;;;;7.87;4.50;;;4.30;99.90;;;;;;5035952;28;20234;-78
2022/01/08 12:24:42;;;;;;;7.77;4.33;;;4.30;99.90;;;;;;5034784;28;20184;-78
2022/01/08 12:27:33;;;;;;;6.67;4.10;;;4.40;99.90;;;;;;5036022;28;20247;-78
2022/01/08 12:30:17;;;;;;;11.97;4.03;;;4.40;99.90;;;;;;5034154;28;20184;-79
2022/01/08 12:32:49;;;;;;;7.50;4.00;;;4.50;99.90;;;;;;5028145;28;20181;-78
2022/01/08 12:35:37;;;;;;;10.30;4.57;;;4.50;99.90;;;;;;5023089;28;20598;-78
2022/01/08 12:38:06;;;;;;;7.80;4.10;;;4.50;99.90;;;;;;5029518;28;20204;-78
2022/01/08 12:40:40;;;;;;;7.90;4.60;;;4.50;99.90;;;;;;5014144;28;20266;-78
2022/01/08 12:43:36;;;;;;;7.30;3.83;;;4.50;99.90;;;;;;5015189;28;20161;-78
2022/01/08 12:46:24;;;;;;;7.37;3.63;;;4.50;99.90;;;;;;5013465;28;20264;-78
2022/01/08 12:49:11;;;;;;;6.13;3.57;;;4.60;99.90;;;;;;5015469;28;20260;-78
2022/01/08 12:52:05;;;;;;;6.47;3.03;;;4.60;99.90;;;;;;5013714;28;20757;-78
2022/01/08 12:54:32;;;;;;;6.23;3.40;;;4.60;99.90;;;;;;5012384;28;20203;-78
2022/01/08 12:57:00;;;;;;;4.83;2.87;;;4.70;99.90;;;;;;5015171;28;20567;-78
2022/01/08 12:59:38;;;;;;;7.47;3.33;;;4.70;99.90;;;;;;5015001;28;20169;-78
2022/01/08 13:02:08;;;;;;;5.13;3.10;;;4.70;99.90;;;;;;5018548;28;20534;-78
2022/01/08 13:04:35;;;;;;;5.10;2.70;;;4.70;99.90;;;;;;5033192;28;20195;-78
2022/01/08 13:07:00;;;;;;;8.03;2.90;;;4.70;99.90;;;;;;5033365;28;20227;-78
2022/01/08 13:09:27;;;;;;;7.33;2.90;;;4.70;99.90;;;;;;5034696;28;20208;-78
2022/01/08 13:11:52;;;;;;;8.97;2.50;;;4.60;99.90;;;;;;5033353;28;20553;-78
2022/01/08 13:14:21;;;;;;;5.93;2.63;;;4.60;99.90;;;;;;5033044;28;20180;-78